createdAt,value
2023-01-21T00:01:39.602Z,27.13
2023-01-21T00:04:09.257Z,27.50
2023-01-21T00:06:37.763Z,25.30
2023-01-21T00:09:05.124Z,24.30
2023-01-21T00:11:32.423Z,25.37
2023-01-21T00:14:00.459Z,25.97
2023-01-21T00:16:28.705Z,25.77
2023-01-21T00:18:58.698Z,26.20
2023-01-21T00:21:27.292Z,21.47
2023-01-21T00:23:54.985Z,23.07
2023-01-21T00:26:24.455Z,24.13
2023-01-21T00:28:52.288Z,22.13
2023-01-21T00:31:21.120Z,20.97
2023-01-21T00:33:48.884Z,22.50
2023-01-21T00:36:22.244Z,17.80
2023-01-21T00:38:52.714Z,19.53
2023-01-21T00:41:21.931Z,20.70
2023-01-21T00:43:50.395Z,18.63
2023-01-21T00:46:20.616Z,18.93
2023-01-21T00:48:47.926Z,20.33
2023-01-21T00:51:15.817Z,18.00
2023-01-21T00:53:43.931Z,22.00
2023-01-21T00:56:13.261Z,20.23
2023-01-21T00:58:43.620Z,17.77
2023-01-21T01:01:15.783Z,18.50
2023-01-21T01:04:03.111Z,17.10
2023-01-21T01:06:31.867Z,17.77
2023-01-21T01:08:59.454Z,16.83
2023-01-21T01:11:27.798Z,14.27
2023-01-21T01:13:55.734Z,14.87
2023-01-21T01:16:25.369Z,15.60
2023-01-21T01:18:52.827Z,13.90
2023-01-21T01:21:21.122Z,16.20
2023-01-21T01:23:48.850Z,15.27
2023-01-21T01:26:18.883Z,16.70
2023-01-21T01:28:46.624Z,12.30
2023-01-21T01:31:15.254Z,14.40
2023-01-21T01:33:42.914Z,12.80
2023-01-21T01:36:14.992Z,12.57
2023-01-21T01:38:42.702Z,13.60
2023-01-21T01:41:11.951Z,13.37
2023-01-21T01:43:58.223Z,12.80
2023-01-21T01:46:30.411Z,12.67
2023-01-21T01:49:00.688Z,13.10
2023-01-21T01:51:31.471Z,13.33
2023-01-21T01:54:01.769Z,13.97
2023-01-21T01:56:30.047Z,14.13
2023-01-21T01:58:58.017Z,13.47
2023-01-21T02:01:27.286Z,13.23
2023-01-21T02:03:59.536Z,12.63
2023-01-21T02:06:28.470Z,14.40
2023-01-21T02:08:57.271Z,12.87
2023-01-21T02:11:24.824Z,12.17
2023-01-21T02:13:53.774Z,13.17
2023-01-21T02:16:39.639Z,12.83
2023-01-21T02:19:09.722Z,12.57
2023-01-21T02:21:49.264Z,12.60
2023-01-21T02:24:35.673Z,12.87
2023-01-21T02:27:03.032Z,12.50
2023-01-21T02:29:33.341Z,12.97
2023-01-21T02:32:14.833Z,9.80
2023-01-21T02:34:46.745Z,11.00
2023-01-21T02:37:20.885Z,12.57
2023-01-21T02:40:01.402Z,10.97
2023-01-21T02:42:42.317Z,10.13
2023-01-21T02:45:30.207Z,10.37
2023-01-21T02:48:08.776Z,12.60
2023-01-21T02:50:56.799Z,9.87
2023-01-21T02:53:27.360Z,12.43
2023-01-21T02:56:02.245Z,11.13
2023-01-21T02:58:34.494Z,12.43
2023-01-21T03:01:12.623Z,11.17
2023-01-21T03:03:41.422Z,11.43
2023-01-21T03:06:39.107Z,9.90
2023-01-21T03:09:12.142Z,10.77
2023-01-21T03:11:41.085Z,11.90
2023-01-21T03:14:40.028Z,11.27
2023-01-21T03:17:28.649Z,9.70
2023-01-21T03:20:20.295Z,10.03
2023-01-21T03:22:48.606Z,10.77
2023-01-21T03:25:17.418Z,11.00
2023-01-21T03:27:47.277Z,12.40
2023-01-21T03:30:17.228Z,9.97
2023-01-21T03:32:52.304Z,10.57
2023-01-21T03:35:27.575Z,11.83
2023-01-21T03:38:15.696Z,9.80
2023-01-21T03:40:47.433Z,10.53
2023-01-21T03:43:16.685Z,11.43
2023-01-21T03:45:50.006Z,10.57
2023-01-21T03:48:22.755Z,10.10
2023-01-21T03:51:12.765Z,8.20
2023-01-21T03:54:01.274Z,8.83
2023-01-21T03:59:14.051Z,8.30
2023-01-21T04:01:44.736Z,8.20
2023-01-21T04:04:23.481Z,7.63
2023-01-21T04:06:55.144Z,6.87
2023-01-21T04:09:27.519Z,6.83
2023-01-21T04:11:55.890Z,7.30
2023-01-21T04:14:24.022Z,8.97
2023-01-21T04:16:51.725Z,5.80
2023-01-21T04:19:20.352Z,6.10
2023-01-21T04:21:47.770Z,6.97
2023-01-21T04:24:15.111Z,5.90
2023-01-21T04:26:42.426Z,5.00
2023-01-21T04:29:09.689Z,5.40
2023-01-21T04:31:38.188Z,4.90
2023-01-21T04:34:05.772Z,5.03
2023-01-21T04:37:25.939Z,4.63
2023-01-21T04:39:53.652Z,5.47
2023-01-21T04:42:20.987Z,4.67
2023-01-21T04:44:50.974Z,4.63
2023-01-21T04:47:20.363Z,4.53
2023-01-21T04:49:49.226Z,4.43
2023-01-21T04:52:16.950Z,4.03
2023-01-21T04:54:44.973Z,3.07
2023-01-21T04:57:12.665Z,4.90
2023-01-21T04:59:39.988Z,6.20
2023-01-21T05:02:09.871Z,3.57
2023-01-21T05:04:37.520Z,2.93
2023-01-21T05:07:09.554Z,2.93
2023-01-21T05:09:37.108Z,3.70
2023-01-21T05:12:05.762Z,3.27
2023-01-21T05:14:34.683Z,3.00
2023-01-21T05:17:02.309Z,3.70
2023-01-21T05:19:30.881Z,5.27
2023-01-21T05:22:00.202Z,2.37
2023-01-21T05:24:28.880Z,3.33
2023-01-21T05:27:03.344Z,3.00
2023-01-21T05:29:35.499Z,3.83
2023-01-21T05:32:07.166Z,3.27
2023-01-21T05:34:34.569Z,4.47
2023-01-21T05:37:04.053Z,2.53
2023-01-21T09:04:16.099Z,9.10
2023-01-21T09:06:43.430Z,8.93
2023-01-21T09:09:11.617Z,8.53
2023-01-21T09:11:39.165Z,9.50
2023-01-21T09:14:06.975Z,6.30
2023-01-21T09:16:35.350Z,9.00
2023-01-21T09:19:02.794Z,7.23
2023-01-21T09:21:30.154Z,6.00
2023-01-21T09:23:57.765Z,8.23
2023-01-21T09:26:25.148Z,5.63
2023-01-21T09:28:54.623Z,6.57
2023-01-21T09:31:23.532Z,6.73
2023-01-21T09:33:52.037Z,7.27
2023-01-21T09:36:20.887Z,9.03
2023-01-21T09:38:49.293Z,8.70
2023-01-21T09:41:22.967Z,8.27
2023-01-21T09:43:54.666Z,8.63
2023-01-21T09:46:28.838Z,8.37
2023-01-21T09:48:56.847Z,10.03
2023-01-21T09:51:28.662Z,13.47
2023-01-21T09:53:57.808Z,12.27
2023-01-21T09:56:45.779Z,15.03
2023-01-21T09:59:21.051Z,10.40
2023-01-21T10:01:49.135Z,10.80
2023-01-21T10:04:25.471Z,10.67
2023-01-21T10:06:58.517Z,12.73
2023-01-21T10:09:46.325Z,12.33
2023-01-21T10:12:37.441Z,10.10
2023-01-21T10:15:17.231Z,10.20
2023-01-21T10:17:47.658Z,11.67
2023-01-21T10:20:20.729Z,8.67
2023-01-21T10:22:51.937Z,9.90
2023-01-21T10:25:19.883Z,8.00
2023-01-21T10:27:47.352Z,9.70
2023-01-21T10:30:44.159Z,8.53
2023-01-21T10:33:19.933Z,10.10
2023-01-21T10:35:53.257Z,8.80
2023-01-21T10:38:37.454Z,8.40
2023-01-21T10:41:25.040Z,7.97
2023-01-21T10:43:55.511Z,9.13
2023-01-21T10:46:28.795Z,8.07
2023-01-21T10:49:00.369Z,9.67
2023-01-21T10:51:27.678Z,7.93
2023-01-21T10:54:01.361Z,7.77
2023-01-21T10:56:47.434Z,8.60
2023-01-21T10:59:21.136Z,9.97
2023-01-21T11:01:52.809Z,9.60
2023-01-21T11:04:23.797Z,11.67
2023-01-21T11:07:05.109Z,8.93
2023-01-21T11:09:34.054Z,10.47
2023-01-21T11:12:02.931Z,12.60
2023-01-21T11:14:30.475Z,10.13
2023-01-21T11:16:58.340Z,11.20
2023-01-21T11:19:26.292Z,10.07
2023-01-21T11:22:01.528Z,11.17
2023-01-21T11:24:30.042Z,14.47
2023-01-21T11:26:59.527Z,12.40
2023-01-21T11:29:27.333Z,11.77
2023-01-21T11:32:02.406Z,13.20
2023-01-21T11:34:30.287Z,13.50
2023-01-21T11:37:01.806Z,13.07
2023-01-21T11:39:32.908Z,15.40
2023-01-21T11:42:05.799Z,15.20
2023-01-21T11:44:33.996Z,18.60
2023-01-21T11:47:03.628Z,15.47
2023-01-21T11:49:33.238Z,15.37
2023-01-21T11:52:14.251Z,17.27
2023-01-21T11:54:41.729Z,17.13
2023-01-21T11:57:20.080Z,21.00
2023-01-21T11:59:51.212Z,24.67
2023-01-21T12:02:20.549Z,17.33
2023-01-21T12:04:51.337Z,16.83
2023-01-21T12:07:32.122Z,18.30
2023-01-21T12:10:02.717Z,20.90
2023-01-21T12:12:30.146Z,16.77
2023-01-21T12:14:59.632Z,17.20
2023-01-21T12:17:29.989Z,22.73
2023-01-21T12:20:12.531Z,20.03
2023-01-21T12:22:51.208Z,18.07
2023-01-21T12:25:22.590Z,18.97
2023-01-21T12:27:54.407Z,18.30
2023-01-21T12:30:21.754Z,20.23
2023-01-21T12:32:56.822Z,17.77
2023-01-21T12:35:41.703Z,20.80
2023-01-21T12:38:15.941Z,16.53
2023-01-21T12:41:01.309Z,20.57
2023-01-21T12:43:34.630Z,21.10
2023-01-21T12:46:10.790Z,21.93
2023-01-21T12:48:45.431Z,20.03
2023-01-21T12:51:21.854Z,21.67
2023-01-21T12:54:00.928Z,21.67
2023-01-21T12:56:45.339Z,20.17
2023-01-21T12:59:16.283Z,21.37
2023-01-21T13:01:47.238Z,23.30
2023-01-21T13:04:24.183Z,19.03
2023-01-21T13:07:11.746Z,23.07
2023-01-21T13:09:39.029Z,20.40
2023-01-21T13:12:10.737Z,21.93
2023-01-21T13:14:41.966Z,22.07
2023-01-21T13:17:20.434Z,22.37
2023-01-21T13:19:48.206Z,22.80
2023-01-21T13:22:34.078Z,23.20
2023-01-21T13:25:01.431Z,21.90
2023-01-21T13:27:43.144Z,23.50
2023-01-21T13:30:33.471Z,23.17
2023-01-21T13:33:00.824Z,29.97
2023-01-21T13:35:42.012Z,25.87
2023-01-21T13:38:21.645Z,21.17
2023-01-21T13:40:57.823Z,21.67
2023-01-21T13:43:27.880Z,22.90
2023-01-21T13:46:13.826Z,21.53
2023-01-21T13:48:44.344Z,25.50
2023-01-21T13:51:30.342Z,24.93
2023-01-21T13:54:16.402Z,23.70
2023-01-21T13:56:50.497Z,27.50
2023-01-21T13:59:21.730Z,22.37
2023-01-21T14:01:54.083Z,24.20
2023-01-21T14:04:33.438Z,23.63
2023-01-21T14:07:00.935Z,25.93
2023-01-21T14:09:33.213Z,25.23
2023-01-21T14:12:07.185Z,28.57
2023-01-21T14:14:59.281Z,27.50
2023-01-21T14:17:46.589Z,24.07
2023-01-21T14:20:27.430Z,27.03
2023-01-21T14:23:09.888Z,27.90
2023-01-21T14:25:55.497Z,28.30
2023-01-21T14:28:25.643Z,28.33
2023-01-21T14:31:06.534Z,30.00
2023-01-21T14:33:39.773Z,31.23
2023-01-21T14:36:26.028Z,30.67
2023-01-21T14:39:08.248Z,29.70
2023-01-21T14:41:54.486Z,31.67
2023-01-21T14:44:38.203Z,30.17
2023-01-21T14:47:15.947Z,32.20
2023-01-21T14:49:45.461Z,32.17
2023-01-21T14:52:14.963Z,31.53
2023-01-21T14:54:45.936Z,31.80
2023-01-21T14:57:23.017Z,31.57
2023-01-21T14:59:51.067Z,32.20
2023-01-21T15:02:29.359Z,29.27
2023-01-21T15:05:04.598Z,30.87
2023-01-21T15:07:34.963Z,33.20
2023-01-21T15:10:06.926Z,35.20
2023-01-21T15:12:34.841Z,36.53
2023-01-21T15:15:03.735Z,34.60
2023-01-21T15:17:50.051Z,36.10
2023-01-21T15:20:37.859Z,36.43
2023-01-21T15:23:19.958Z,34.40
2023-01-21T15:26:06.098Z,40.53
2023-01-21T15:28:40.503Z,46.17
2023-01-21T15:31:09.581Z,52.77
2023-01-21T15:33:39.628Z,63.53
2023-01-21T15:36:12.523Z,82.23
2023-01-21T15:38:41.829Z,43.70
2023-01-21T15:41:14.786Z,49.83
2023-01-21T15:43:51.968Z,49.37
2023-01-21T15:46:19.567Z,43.97
2023-01-21T15:49:05.970Z,43.53
2023-01-21T15:51:40.129Z,49.23
2023-01-21T15:54:15.068Z,42.07
2023-01-21T15:56:54.950Z,42.47
2023-01-21T15:59:22.517Z,40.60
2023-01-21T16:01:52.858Z,41.27
2023-01-21T16:04:32.026Z,42.60
2023-01-21T16:07:14.351Z,42.03
2023-01-21T16:09:45.186Z,41.73
2023-01-21T16:12:24.919Z,41.50
2023-01-21T16:14:59.899Z,44.93
2023-01-21T16:17:46.002Z,45.07
2023-01-21T16:20:16.649Z,41.63
2023-01-21T16:22:47.362Z,43.83
2023-01-21T16:25:17.748Z,45.17
2023-01-21T16:27:47.736Z,46.40
2023-01-21T16:30:22.680Z,39.50
2023-01-21T16:33:07.556Z,41.00
2023-01-21T16:35:54.039Z,43.13
2023-01-21T16:38:23.342Z,44.57
2023-01-21T16:40:51.599Z,41.67
2023-01-21T16:43:26.829Z,46.77
2023-01-21T16:46:01.919Z,41.47
2023-01-21T16:48:35.430Z,42.97
2023-01-21T16:51:03.310Z,56.53
2023-01-21T16:53:30.672Z,40.53
2023-01-21T16:55:59.276Z,46.20
2023-01-21T16:58:32.514Z,40.07
2023-01-21T17:01:00.232Z,45.57
2023-01-21T17:03:28.227Z,41.03
2023-01-21T17:05:57.000Z,49.50
2023-01-21T17:08:25.268Z,47.73
2023-01-21T17:11:03.590Z,42.93
2023-01-21T17:13:32.000Z,46.77
2023-01-21T17:16:03.694Z,43.43
2023-01-21T17:18:37.286Z,45.50
2023-01-21T17:21:04.922Z,49.80
2023-01-21T17:23:34.708Z,51.97
2023-01-21T17:26:06.163Z,44.10
2023-01-21T17:28:40.006Z,43.77
2023-01-21T17:31:16.404Z,48.20
2023-01-21T17:33:44.746Z,46.03
2023-01-21T17:36:16.066Z,47.77
2023-01-21T17:38:45.441Z,48.50
2023-01-21T17:41:22.591Z,51.20
2023-01-21T17:43:50.685Z,48.77
2023-01-21T17:46:23.001Z,63.83
2023-01-21T17:48:56.096Z,48.07
2023-01-21T17:51:28.094Z,53.60
2023-01-21T17:53:57.189Z,45.77
2023-01-21T17:56:41.805Z,47.83
2023-01-21T17:59:27.517Z,49.30
2023-01-21T18:01:56.101Z,49.50
2023-01-21T18:04:23.947Z,51.27
2023-01-21T18:06:52.265Z,47.67
2023-01-21T18:09:20.732Z,55.50
2023-01-21T18:11:49.976Z,52.00
2023-01-21T18:14:18.417Z,58.20
2023-01-21T18:16:46.294Z,49.93
2023-01-21T18:19:37.493Z,52.30
2023-01-21T18:22:06.769Z,43.67
2023-01-21T18:24:35.576Z,45.23
2023-01-21T18:27:03.340Z,47.03
2023-01-21T18:29:31.449Z,49.13
2023-01-21T18:31:59.289Z,50.53
2023-01-21T18:34:27.091Z,46.37
2023-01-21T18:36:56.717Z,48.77
2023-01-21T18:39:24.092Z,47.27
2023-01-21T18:41:54.299Z,50.23
2023-01-21T18:44:21.950Z,47.17
2023-01-21T18:46:49.553Z,49.53
2023-01-21T18:49:18.371Z,50.77
2023-01-21T18:51:46.074Z,50.43
2023-01-21T18:54:18.226Z,54.50
2023-01-21T18:56:46.473Z,49.40
2023-01-21T18:59:16.727Z,45.30
2023-01-21T19:01:44.993Z,50.60
2023-01-21T19:04:18.481Z,51.77
2023-01-21T19:06:55.415Z,51.27
2023-01-21T19:09:24.362Z,53.10
2023-01-21T19:11:52.209Z,55.77
2023-01-21T19:14:19.654Z,54.43
2023-01-21T19:16:47.426Z,47.90
2023-01-21T19:19:16.026Z,46.47
2023-01-21T19:21:43.435Z,47.33
2023-01-21T19:24:12.292Z,48.27
2023-01-21T19:26:39.928Z,51.30
2023-01-21T19:29:11.881Z,51.37
2023-01-21T19:31:39.312Z,46.60
2023-01-21T19:34:13.309Z,49.67
2023-01-21T19:36:40.955Z,53.50
2023-01-21T19:39:15.053Z,55.53
2023-01-21T19:41:42.430Z,45.10
2023-01-21T19:44:09.888Z,50.33
2023-01-21T19:46:37.305Z,56.47
2023-01-21T19:49:37.314Z,49.00
2023-01-21T19:52:05.811Z,49.00
2023-01-21T19:54:33.200Z,49.47
2023-01-21T19:57:00.663Z,47.73
2023-01-21T19:59:28.374Z,50.27
2023-01-21T20:01:55.932Z,47.90
2023-01-21T20:04:24.519Z,46.17
2023-01-21T20:06:51.959Z,50.13
2023-01-21T20:09:20.245Z,49.00
2023-01-21T20:11:47.719Z,52.17
2023-01-21T20:14:15.184Z,55.97
2023-01-21T20:16:47.170Z,48.57
2023-01-21T20:19:23.609Z,52.90
2023-01-21T20:22:01.100Z,51.57
2023-01-21T20:24:34.239Z,51.20
2023-01-21T20:27:03.413Z,50.57
2023-01-21T20:29:30.819Z,48.73
2023-01-21T20:31:58.589Z,52.77
2023-01-21T20:34:44.352Z,53.40
2023-01-21T20:37:15.285Z,52.47
2023-01-21T20:39:42.776Z,55.13
2023-01-21T20:42:12.711Z,55.87
2023-01-21T20:44:40.186Z,55.63
2023-01-21T20:47:07.652Z,56.37
2023-01-21T20:49:35.576Z,59.30
2023-01-21T20:52:03.396Z,57.03
2023-01-21T20:54:31.184Z,55.73
2023-01-21T20:56:58.711Z,58.50
2023-01-21T20:59:26.121Z,56.77
2023-01-21T21:01:55.466Z,58.53
2023-01-21T21:04:25.048Z,62.03
2023-01-21T21:06:52.488Z,63.10
2023-01-21T21:09:22.115Z,56.97
2023-01-21T21:11:50.174Z,56.70
2023-01-21T21:14:17.757Z,62.27
2023-01-21T21:16:45.261Z,65.67
2023-01-21T21:19:13.324Z,58.37
2023-01-21T21:21:40.655Z,61.77
2023-01-21T21:24:08.171Z,56.17
2023-01-21T21:26:37.554Z,55.67
2023-01-21T21:29:04.980Z,54.70
2023-01-21T21:31:32.910Z,55.63
2023-01-21T21:34:00.566Z,56.70
2023-01-21T21:36:27.916Z,61.73
2023-01-21T21:38:58.155Z,57.47
2023-01-21T21:41:45.134Z,60.83
2023-01-21T21:44:12.899Z,57.50
2023-01-21T21:46:59.164Z,53.40
2023-01-21T21:49:26.625Z,56.40
2023-01-21T21:51:54.032Z,61.40
2023-01-21T21:54:22.822Z,56.53
2023-01-21T21:56:50.282Z,57.40
2023-01-21T21:59:17.635Z,49.43
2023-01-21T22:01:45.348Z,53.40
2023-01-21T22:04:12.957Z,54.63
2023-01-21T22:06:40.545Z,49.23
2023-01-21T22:09:08.411Z,51.90
2023-01-21T22:11:36.073Z,50.77
2023-01-21T22:14:04.381Z,52.00
2023-01-21T22:16:32.430Z,52.47
2023-01-21T22:19:00.308Z,54.33
2023-01-21T22:21:29.243Z,54.70
2023-01-21T22:23:56.851Z,54.37
2023-01-21T22:26:25.053Z,53.50
2023-01-21T22:28:53.133Z,49.10
2023-01-21T22:31:22.129Z,51.20
2023-01-21T22:33:50.235Z,50.40
2023-01-21T22:36:19.038Z,52.60
2023-01-21T22:38:46.661Z,56.57
2023-01-21T22:41:15.705Z,50.87
2023-01-21T22:43:44.953Z,52.43
2023-01-21T22:46:14.268Z,51.97
2023-01-21T22:48:42.260Z,51.40
2023-01-21T22:51:12.261Z,57.63
2023-01-21T22:53:40.334Z,54.10
2023-01-21T22:56:07.880Z,56.00
2023-01-21T22:58:35.643Z,58.47
2023-01-21T23:01:03.376Z,56.33
2023-01-21T23:03:30.821Z,57.80
2023-01-21T23:06:08.720Z,56.63
2023-01-21T23:08:39.157Z,52.60
2023-01-21T23:11:08.060Z,55.53
2023-01-21T23:13:35.680Z,56.03
2023-01-21T23:16:03.326Z,53.60
2023-01-21T23:18:30.776Z,58.67
2023-01-21T23:20:58.155Z,59.93
2023-01-21T23:23:25.820Z,55.43
2023-01-21T23:25:53.388Z,58.93
2023-01-21T23:28:20.957Z,59.73
2023-01-21T23:30:48.488Z,57.80
2023-01-21T23:33:19.014Z,58.13
2023-01-21T23:35:46.606Z,57.90
2023-01-21T23:38:13.968Z,61.93
2023-01-21T23:40:41.325Z,62.03
2023-01-21T23:43:11.509Z,62.27
2023-01-21T23:45:39.754Z,61.10
2023-01-21T23:48:07.194Z,63.67
2023-01-21T23:50:34.604Z,61.20
2023-01-21T23:53:02.078Z,58.37
2023-01-21T23:55:30.449Z,58.27
2023-01-21T23:57:57.906Z,65.93
